createdAt,value
2022-08-16T00:01:22.060Z,98255.28
2022-08-16T00:03:52.385Z,98256.13
2022-08-16T00:06:19.691Z,98254.56
2022-08-16T00:08:48.851Z,98250.38
2022-08-16T00:11:17.897Z,98257.53
2022-08-16T00:13:53.961Z,98252.50
2022-08-16T00:17:00.589Z,98255.13
2022-08-16T00:19:18.663Z,98253.06
2022-08-16T00:21:53.202Z,98260.72
2022-08-16T00:24:31.405Z,98259.47
2022-08-16T00:27:01.715Z,98263.03
2022-08-16T00:29:29.639Z,98261.47
2022-08-16T00:32:00.955Z,98265.88
2022-08-16T00:34:44.430Z,98262.03
2022-08-16T00:37:25.049Z,98261.41
2022-08-16T00:40:34.235Z,98265.91
2022-08-16T00:43:00.162Z,98269.72
2022-08-16T00:45:57.800Z,98284.50
2022-08-16T00:48:31.610Z,98282.22
2022-08-16T00:51:02.140Z,98283.19
2022-08-16T00:53:30.958Z,98282.56
2022-08-16T00:56:00.456Z,98286.84
2022-08-16T00:58:34.337Z,98280.25
2022-08-16T01:01:03.279Z,98281.31
2022-08-16T01:03:36.640Z,98286.69
2022-08-16T01:06:40.321Z,98280.06
2022-08-16T01:08:59.865Z,98290.88
2022-08-16T01:11:29.395Z,98290.16
2022-08-16T01:14:13.830Z,98288.47
2022-08-16T01:16:47.736Z,98294.97
2022-08-16T01:19:22.636Z,98300.03
2022-08-16T01:21:54.092Z,98294.16
2022-08-16T01:24:52.726Z,98308.41
2022-08-16T01:27:43.881Z,98313.28
2022-08-16T01:30:31.692Z,98308.84
2022-08-16T01:33:14.102Z,98299.63
2022-08-16T01:35:44.757Z,98310.13
2022-08-16T01:38:20.365Z,98306.72
2022-08-16T01:40:51.689Z,98305.88
2022-08-16T01:43:18.968Z,98303.47
2022-08-16T01:45:46.784Z,98305.47
2022-08-16T01:48:27.577Z,98303.28
2022-08-16T01:51:09.689Z,98311.97
2022-08-16T01:53:42.169Z,98313.03
2022-08-16T01:56:25.593Z,98311.34
2022-08-16T01:58:55.613Z,98305.47
2022-08-16T02:01:26.099Z,98306.00
2022-08-16T02:03:58.710Z,98304.31
2022-08-16T02:06:46.184Z,98308.91
2022-08-16T02:09:19.433Z,98305.59
2022-08-16T02:11:57.030Z,98310.63
2022-08-16T02:14:29.991Z,98308.19
2022-08-16T02:16:59.006Z,98300.75
2022-08-16T02:19:59.998Z,98312.06
2022-08-16T02:22:33.659Z,98308.09
2022-08-16T02:25:01.225Z,98313.22
2022-08-16T02:27:28.524Z,98314.28
2022-08-16T02:30:05.683Z,98305.78
2022-08-16T02:32:50.365Z,98309.22
2022-08-16T02:35:23.190Z,98316.56
2022-08-16T02:37:53.481Z,98314.88
2022-08-16T02:40:25.620Z,98312.44
2022-08-16T02:42:53.494Z,98310.78
2022-08-16T02:45:24.853Z,98315.28
2022-08-16T02:48:00.593Z,98319.81
2022-08-16T02:51:03.167Z,98319.97
2022-08-16T02:53:30.552Z,98310.66
2022-08-16T02:55:59.229Z,98313.38
2022-08-16T02:58:28.113Z,98317.75
2022-08-16T03:00:57.768Z,98320.59
2022-08-16T03:03:26.947Z,98322.47
2022-08-16T03:06:41.623Z,98318.25
2022-08-16T03:09:13.038Z,98318.53
2022-08-16T03:11:44.868Z,98316.88
2022-08-16T03:14:12.316Z,98316.13
2022-08-16T03:16:42.246Z,98319.78
2022-08-16T03:19:26.633Z,98320.81
2022-08-16T03:22:19.397Z,98322.72
2022-08-16T03:24:58.415Z,98329.06
2022-08-16T03:27:30.531Z,98329.81
2022-08-16T03:30:17.427Z,98324.25
2022-08-16T03:32:52.556Z,98326.00
2022-08-16T03:35:33.485Z,98333.03
2022-08-16T03:38:34.537Z,98348.84
2022-08-16T03:40:59.846Z,98342.00
2022-08-16T03:43:51.149Z,98330.72
2022-08-16T03:46:44.461Z,98341.47
2022-08-16T03:49:12.311Z,98341.03
2022-08-16T03:51:41.042Z,98333.28
2022-08-16T03:54:12.296Z,98347.94
2022-08-16T03:56:56.973Z,98343.84
2022-08-16T03:59:25.078Z,98340.78
2022-08-16T04:01:53.769Z,98346.75
2022-08-16T04:04:32.273Z,98348.53
2022-08-16T04:07:03.350Z,98359.19
2022-08-16T04:09:35.620Z,98365.22
2022-08-16T04:12:11.395Z,98368.16
2022-08-16T04:14:53.458Z,98368.44
2022-08-16T04:17:21.973Z,98374.63
2022-08-16T04:19:54.758Z,98382.47
2022-08-16T04:22:27.633Z,98379.84
2022-08-16T04:25:00.726Z,98381.81
2022-08-16T04:27:33.629Z,98401.16
2022-08-16T04:30:03.025Z,98399.34
2022-08-16T04:32:36.183Z,98402.16
2022-08-16T04:35:15.507Z,98410.75
2022-08-16T04:37:45.364Z,98415.16
2022-08-16T04:40:28.830Z,98417.22
2022-08-16T04:42:59.886Z,98419.75
2022-08-16T04:45:36.084Z,98418.81
2022-08-16T04:48:28.165Z,98424.22
2022-08-16T04:51:11.817Z,98429.56
2022-08-16T04:53:47.567Z,98424.31
2022-08-16T04:56:17.046Z,98424.13
2022-08-16T04:58:46.941Z,98427.50
2022-08-16T05:01:18.410Z,98439.44
2022-08-16T05:04:01.011Z,98441.31
2022-08-16T05:06:44.592Z,98442.25
2022-08-16T05:09:39.525Z,98436.06
2022-08-16T05:12:12.861Z,98436.94
2022-08-16T05:15:01.981Z,98442.53
2022-08-16T05:17:33.444Z,98438.16
2022-08-16T05:20:39.100Z,98432.81
2022-08-16T05:22:58.194Z,98443.47
2022-08-16T05:25:36.408Z,98433.94
2022-08-16T05:28:12.960Z,98430.75
2022-08-16T05:30:46.071Z,98435.44
2022-08-16T05:33:26.134Z,98442.06
2022-08-16T05:35:56.895Z,98444.47
2022-08-16T05:38:38.899Z,98447.47
2022-08-16T05:41:10.455Z,98443.91
2022-08-16T05:43:46.799Z,98456.19
2022-08-16T05:46:33.701Z,98449.31
2022-08-16T05:49:22.160Z,98451.72
2022-08-16T05:51:55.725Z,98452.03
2022-08-16T05:54:26.003Z,98443.88
2022-08-16T05:56:57.202Z,98448.41
2022-08-16T05:59:28.720Z,98448.50
2022-08-16T06:02:06.068Z,98438.69
2022-08-16T06:04:45.734Z,98431.38
2022-08-16T06:07:26.209Z,98429.22
2022-08-16T06:10:32.024Z,98427.09
2022-08-16T06:13:05.990Z,98419.59
2022-08-16T06:53:23.452Z,98440.53
2022-08-16T06:55:59.016Z,98438.91
2022-08-16T06:58:34.063Z,98432.91
2022-08-16T07:01:14.856Z,98435.59
2022-08-16T07:03:55.901Z,98438.31
2022-08-16T07:06:31.601Z,98438.38
2022-08-16T07:09:09.643Z,98436.78
2022-08-16T07:29:04.929Z,98438.13
2022-08-16T07:31:43.950Z,98425.09
2022-08-16T07:37:55.018Z,98434.78
2022-08-16T07:40:56.243Z,98420.03
2022-08-16T07:57:26.678Z,98413.47
2022-08-16T08:00:25.212Z,98404.56
2022-08-16T08:06:00.806Z,98403.28
2022-08-16T08:08:51.044Z,98403.53
2022-08-16T08:11:23.664Z,98405.41
2022-08-16T08:13:53.718Z,98395.78
2022-08-16T09:42:05.854Z,98368.63
2022-08-16T10:38:41.947Z,98365.31
2022-08-16T10:41:27.634Z,98362.84
2022-08-16T10:47:42.864Z,98365.44
2022-08-16T12:50:32.967Z,98294.09
2022-08-16T12:53:01.625Z,98304.00
2022-08-16T12:55:33.626Z,98292.53
2022-08-16T12:58:02.363Z,98306.28
2022-08-16T13:00:33.273Z,98309.25
2022-08-16T13:03:01.360Z,98315.41
2022-08-16T13:05:28.814Z,98314.22
2022-08-16T13:08:00.520Z,98336.72
2022-08-16T13:10:37.071Z,98333.22
2022-08-16T13:13:12.237Z,98345.00
2022-08-16T13:49:08.361Z,98332.56
2022-08-16T14:17:27.406Z,98371.88
2022-08-16T14:49:02.921Z,98337.66
2022-08-16T15:02:52.439Z,98336.16
2022-08-16T15:05:27.266Z,98332.34
2022-08-16T15:08:08.387Z,98337.84
2022-08-16T15:11:13.300Z,98332.53
2022-08-16T15:14:07.075Z,98323.06
2022-08-16T15:16:34.426Z,98328.38
2022-08-16T15:19:12.632Z,98317.38
2022-08-16T15:21:50.444Z,98321.69
2022-08-16T15:24:22.518Z,98324.34
2022-08-16T15:26:50.028Z,98325.69
2022-08-16T15:29:19.449Z,98329.69
2022-08-16T15:31:48.369Z,98338.00
2022-08-16T15:34:21.980Z,98344.81
2022-08-16T15:36:53.890Z,98342.97
2022-08-16T15:39:31.805Z,98354.91
2022-08-16T15:42:11.249Z,98349.44
2022-08-16T15:44:52.176Z,98358.72
2022-08-16T15:51:09.528Z,98361.34
2022-08-16T15:53:41.953Z,98363.84
2022-08-16T15:56:16.662Z,98373.47
2022-08-16T15:58:45.463Z,98371.66
2022-08-16T16:01:23.940Z,98382.47
2022-08-16T16:04:10.304Z,98378.78
2022-08-16T16:17:00.819Z,98387.44
2022-08-16T16:19:34.485Z,98383.28
2022-08-16T16:22:03.989Z,98386.09
2022-08-16T16:24:31.527Z,98387.41
2022-08-16T16:27:05.711Z,98390.38
2022-08-16T16:29:40.156Z,98395.50
2022-08-16T16:32:08.523Z,98389.34
2022-08-16T16:34:36.006Z,98396.13
2022-08-16T16:37:03.730Z,98397.59
2022-08-16T16:39:32.602Z,98395.41
2022-08-16T16:42:00.110Z,98393.22
2022-08-16T16:44:33.944Z,98401.34
2022-08-16T16:47:03.901Z,98394.44
2022-08-16T16:49:33.922Z,98402.25
2022-08-16T16:52:07.264Z,98398.53
2022-08-16T16:54:35.850Z,98409.47
2022-08-16T16:57:04.728Z,98407.44
2022-08-16T16:59:32.024Z,98414.72
2022-08-16T17:02:38.186Z,98412.69
2022-08-16T17:04:48.412Z,98410.81
2022-08-16T17:07:15.928Z,98408.63
2022-08-16T17:09:47.599Z,98420.50
2022-08-16T17:12:24.505Z,98430.47
2022-08-16T17:14:54.521Z,98426.06
2022-08-16T17:17:22.148Z,98427.31
2022-08-16T17:19:49.612Z,98436.59
2022-08-16T17:22:19.777Z,98433.69
2022-08-16T17:24:50.696Z,98438.31
2022-08-16T17:27:33.697Z,98447.56
2022-08-16T17:30:29.433Z,98449.59
2022-08-16T17:33:11.830Z,98450.19
2022-08-16T17:35:55.123Z,98452.13
2022-08-16T17:38:38.837Z,98457.91
2022-08-16T17:41:11.080Z,98462.28
2022-08-16T17:43:44.261Z,98461.72
2022-08-16T17:46:51.263Z,98470.91
2022-08-16T17:48:59.240Z,98461.56
2022-08-16T17:51:27.817Z,98459.28
2022-08-16T17:53:55.258Z,98462.09
2022-08-16T17:56:22.441Z,98459.06
2022-08-16T17:58:49.537Z,98469.09
2022-08-16T18:01:16.729Z,98472.19
2022-08-16T18:04:07.639Z,98463.00
2022-08-16T18:06:31.425Z,98464.72
2022-08-16T18:09:03.503Z,98476.41
2022-08-16T18:11:34.114Z,98473.25
2022-08-16T18:14:01.407Z,98479.91
2022-08-16T18:16:28.526Z,98479.34
2022-08-16T18:18:55.745Z,98482.28
2022-08-16T18:21:41.433Z,98479.53
2022-08-16T18:24:09.481Z,98485.34
2022-08-16T18:26:36.640Z,98491.22
2022-08-16T18:29:04.199Z,98497.66
2022-08-16T18:31:31.684Z,98492.06
2022-08-16T18:33:58.793Z,98496.00
2022-08-16T18:36:26.540Z,98492.06
2022-08-16T18:38:53.813Z,98492.50
2022-08-16T18:41:22.026Z,98501.56
2022-08-16T18:44:22.400Z,98503.06
2022-08-16T18:46:36.387Z,98494.84
2022-08-16T18:49:03.469Z,98500.28
2022-08-16T18:51:31.830Z,98503.47
2022-08-16T18:53:58.994Z,98508.22
2022-08-16T18:56:55.702Z,98512.09
2022-08-16T18:59:13.481Z,98512.91
2022-08-16T19:01:40.864Z,98520.00
2022-08-16T19:04:50.512Z,98516.81
2022-08-16T19:06:55.208Z,98516.53
2022-08-16T19:09:22.290Z,98519.72
2022-08-16T19:11:49.371Z,98517.34
2022-08-16T19:14:16.386Z,98520.50
2022-08-16T19:16:43.450Z,98525.91
2022-08-16T19:19:10.500Z,98518.50
2022-08-16T19:21:38.973Z,98516.97
2022-08-16T19:24:06.184Z,98518.34
2022-08-16T19:26:45.524Z,98513.72
2022-08-16T19:29:13.574Z,98510.78
2022-08-16T19:31:40.871Z,98508.28
2022-08-16T19:34:09.022Z,98513.81
2022-08-16T19:36:37.549Z,98509.88
2022-08-16T19:39:10.224Z,98507.38
2022-08-16T19:41:39.771Z,98515.13
2022-08-16T19:44:07.142Z,98520.81
2022-08-16T19:46:34.703Z,98528.16
2022-08-16T19:49:01.723Z,98526.97
2022-08-16T19:51:28.913Z,98525.59
2022-08-16T19:53:56.047Z,98522.50
2022-08-16T19:56:25.971Z,98515.78
2022-08-16T19:59:18.021Z,98516.03
2022-08-16T20:01:42.574Z,98515.16
2022-08-16T20:04:12.735Z,98509.16
2022-08-16T20:06:41.298Z,98523.59
2022-08-16T20:09:08.348Z,98531.78
2022-08-16T20:11:37.553Z,98538.00
2022-08-16T20:14:05.794Z,98539.50
2022-08-16T20:16:33.013Z,98542.25
2022-08-16T20:19:00.233Z,98547.91
2022-08-16T20:21:28.964Z,98542.44
2022-08-16T20:24:09.956Z,98553.13
2022-08-16T20:26:43.398Z,98556.22
2022-08-16T20:29:10.554Z,98549.50
2022-08-16T20:31:37.674Z,98548.09
2022-08-16T20:34:04.777Z,98555.28
2022-08-16T20:36:31.869Z,98553.75
2022-08-16T20:39:00.471Z,98560.34
2022-08-16T20:44:11.884Z,98562.88
2022-08-16T20:46:39.712Z,98574.53
2022-08-16T20:49:09.180Z,98564.72
2022-08-16T20:51:50.891Z,98570.13
2022-08-16T20:54:19.232Z,98577.44
2022-08-16T20:56:46.321Z,98576.03
2022-08-16T20:59:13.410Z,98580.69
2022-08-16T21:01:45.897Z,98576.72
2022-08-16T21:04:17.346Z,98594.69
2022-08-16T21:07:31.538Z,98597.44
2022-08-16T21:10:21.517Z,98588.81
2022-08-16T21:12:54.759Z,98598.28
2022-08-16T21:15:22.136Z,98604.03
2022-08-16T21:17:49.325Z,98596.34
2022-08-16T21:20:16.443Z,98608.34
2022-08-16T21:22:43.574Z,98605.94
2022-08-16T21:25:11.142Z,98604.25
2022-08-16T21:27:42.383Z,98608.09
2022-08-16T21:30:32.354Z,98590.38
2022-08-16T21:33:13.732Z,98606.06
2022-08-16T21:35:42.635Z,98611.69
2022-08-16T21:38:29.146Z,98614.56
2022-08-16T21:40:58.882Z,98606.28
2022-08-16T21:43:27.753Z,98596.91
2022-08-16T21:45:55.491Z,98605.78
2022-08-16T21:48:33.871Z,98608.59
2022-08-16T21:51:13.805Z,98619.38
2022-08-16T21:53:41.884Z,98612.78
2022-08-16T21:56:12.656Z,98613.03
2022-08-16T21:58:45.902Z,98615.75
2022-08-16T22:01:12.994Z,98616.94
2022-08-16T22:04:36.203Z,98617.78
2022-08-16T22:06:38.264Z,98612.38
2022-08-16T22:09:08.643Z,98619.06
2022-08-16T22:11:36.076Z,98613.53
2022-08-16T22:14:04.486Z,98611.00
2022-08-16T22:16:33.517Z,98616.50
2022-08-16T22:19:01.138Z,98614.84
2022-08-16T22:21:28.337Z,98626.34
2022-08-16T22:23:57.585Z,98619.72
2022-08-16T22:26:33.894Z,98628.47
2022-08-16T22:29:02.215Z,98612.28
2022-08-16T22:31:29.303Z,98609.13
2022-08-16T22:33:57.036Z,98614.63
2022-08-16T22:36:28.209Z,98609.47
2022-08-16T22:38:58.058Z,98618.34
2022-08-16T22:41:26.412Z,98613.59
2022-08-16T22:43:54.408Z,98608.47
2022-08-16T22:46:21.502Z,98617.50
2022-08-16T22:48:51.416Z,98614.06
2022-08-16T22:51:19.468Z,98608.28
2022-08-16T22:53:47.219Z,98612.69
2022-08-16T22:56:15.813Z,98603.47
2022-08-16T22:58:43.144Z,98609.78
2022-08-16T23:01:10.561Z,98614.22
2022-08-16T23:03:37.772Z,98611.06
2022-08-16T23:06:05.071Z,98608.66
2022-08-16T23:08:38.775Z,98611.28
2022-08-16T23:11:12.378Z,98606.38
2022-08-16T23:13:52.416Z,98595.31
2022-08-16T23:19:11.624Z,98594.09
2022-08-16T23:21:54.724Z,98588.91
2022-08-16T23:33:11.913Z,98592.66
2022-08-16T23:38:37.837Z,98598.63
2022-08-16T23:41:09.376Z,98590.75
2022-08-16T23:43:41.989Z,98591.81
2022-08-16T23:46:17.198Z,98598.75
2022-08-16T23:49:58.571Z,98591.94
2022-08-16T23:51:32.365Z,98602.63
2022-08-16T23:54:00.366Z,98595.06
2022-08-16T23:56:27.624Z,98602.13
2022-08-16T23:59:02.983Z,98601.38
